createdAt,value
2017-06-21T00:01:50.928Z,71.00
2017-06-21T00:04:21.372Z,71.10
2017-06-21T00:06:51.632Z,71.20
2017-06-21T00:09:21.781Z,71.40
2017-06-21T00:11:51.820Z,70.60
2017-06-21T00:14:21.865Z,70.50
2017-06-21T00:16:52.161Z,68.90
2017-06-21T00:19:22.181Z,68.50
2017-06-21T00:21:52.544Z,68.40
2017-06-21T00:24:24.289Z,68.50
2017-06-21T00:26:54.748Z,68.40
2017-06-21T00:29:25.181Z,68.50
2017-06-21T00:31:55.492Z,68.30
2017-06-21T00:34:26.450Z,68.20
2017-06-21T00:36:56.709Z,68.20
2017-06-21T00:39:27.126Z,67.60
2017-06-21T00:41:57.572Z,68.40
2017-06-21T00:44:27.860Z,68.70
2017-06-21T00:46:58.379Z,70.20
2017-06-21T00:49:28.770Z,72.50
2017-06-21T00:51:59.013Z,75.20
2017-06-21T00:54:29.334Z,79.30
2017-06-21T00:56:59.955Z,82.50
2017-06-21T00:59:31.017Z,86.10
2017-06-21T01:02:01.583Z,86.10
2017-06-21T01:04:32.041Z,86.40
2017-06-21T01:07:02.749Z,86.00
2017-06-21T01:09:33.057Z,85.20
2017-06-21T01:12:03.341Z,87.60
2017-06-21T01:14:34.453Z,87.00
2017-06-21T01:17:04.889Z,86.20
2017-06-21T01:19:35.540Z,87.00
2017-06-21T01:22:06.949Z,88.80
2017-06-21T01:24:37.684Z,88.80
2017-06-21T01:27:07.911Z,90.00
2017-06-21T01:29:38.244Z,89.80
2017-06-21T01:32:09.275Z,89.90
2017-06-21T01:34:40.043Z,90.00
2017-06-21T01:37:10.502Z,90.00
2017-06-21T01:39:40.696Z,90.00
2017-06-21T01:42:11.648Z,90.20
2017-06-21T01:44:42.656Z,90.60
2017-06-21T01:47:13.054Z,90.60
2017-06-21T01:49:43.446Z,90.00
2017-06-21T01:52:13.980Z,90.10
2017-06-21T01:54:44.405Z,89.60
2017-06-21T01:57:14.933Z,90.20
2017-06-21T01:59:46.092Z,90.80
2017-06-21T02:02:17.123Z,90.70
2017-06-21T02:04:47.428Z,90.60
2017-06-21T02:07:17.995Z,88.80
2017-06-21T02:09:48.385Z,88.90
2017-06-21T02:12:19.556Z,89.70
2017-06-21T02:14:50.281Z,89.60
2017-06-21T02:17:20.593Z,88.90
2017-06-21T02:19:51.738Z,89.50
2017-06-21T02:22:22.892Z,90.10
2017-06-21T02:24:54.380Z,90.10
2017-06-21T02:27:24.866Z,90.00
2017-06-21T02:29:55.310Z,89.00
2017-06-21T02:32:26.169Z,89.00
2017-06-21T02:34:57.130Z,89.20
2017-06-21T02:37:27.457Z,90.00
2017-06-21T02:39:57.893Z,89.50
2017-06-21T02:42:28.120Z,89.50
2017-06-21T02:44:58.701Z,89.40
2017-06-21T02:47:29.157Z,90.00
2017-06-21T02:49:59.487Z,89.60
2017-06-21T02:52:29.894Z,89.00
2017-06-21T02:55:00.585Z,88.90
2017-06-21T02:57:32.057Z,89.50
2017-06-21T03:00:02.480Z,89.40
2017-06-21T03:02:33.430Z,89.70
2017-06-21T03:05:03.698Z,89.20
2017-06-21T03:07:34.228Z,89.40
2017-06-21T03:10:04.673Z,89.50
2017-06-21T03:12:35.089Z,88.60
2017-06-21T03:15:14.158Z,88.80
2017-06-21T03:17:44.726Z,87.10
2017-06-21T03:20:15.218Z,87.20
2017-06-21T03:22:45.769Z,87.60
2017-06-21T03:25:16.248Z,87.20
2017-06-21T03:27:46.733Z,86.10
2017-06-21T03:30:17.005Z,87.10
2017-06-21T03:32:48.848Z,86.10
2017-06-21T03:35:19.081Z,86.10
2017-06-21T03:37:49.422Z,86.10
2017-06-21T03:40:20.677Z,85.90
2017-06-21T03:42:51.482Z,85.90
2017-06-21T03:45:21.897Z,84.70
2017-06-21T03:47:52.593Z,81.90
2017-06-21T03:50:22.937Z,81.20
2017-06-21T03:52:53.176Z,80.80
2017-06-21T03:55:23.961Z,80.90
2017-06-21T03:57:54.416Z,80.20
2017-06-21T04:00:24.581Z,79.30
2017-06-21T04:02:54.997Z,79.40
2017-06-21T04:05:25.099Z,78.50
2017-06-21T04:07:55.515Z,78.00
2017-06-21T04:10:25.799Z,78.40
2017-06-21T04:12:55.996Z,76.90
2017-06-21T04:15:26.228Z,77.40
2017-06-21T04:17:56.503Z,77.60
2017-06-21T04:20:26.659Z,75.40
2017-06-21T04:22:56.870Z,75.20
2017-06-21T04:25:27.557Z,75.60
2017-06-21T04:27:58.054Z,75.40
2017-06-21T04:30:28.289Z,74.40
2017-06-21T04:32:58.715Z,74.60
2017-06-21T04:35:29.490Z,75.30
2017-06-21T04:37:59.713Z,74.20
2017-06-21T04:40:29.877Z,72.10
2017-06-21T04:43:00.128Z,68.40
2017-06-21T04:45:31.407Z,65.40
2017-06-21T04:48:02.018Z,66.20
2017-06-21T04:50:32.537Z,63.50
2017-06-21T04:53:02.556Z,62.30
2017-06-21T04:55:33.268Z,61.30
2017-06-21T04:58:03.689Z,59.80
2017-06-21T05:00:33.753Z,59.10
2017-06-21T05:03:03.777Z,58.00
2017-06-21T05:05:33.910Z,57.10
2017-06-21T05:08:04.536Z,57.30
2017-06-21T05:10:34.585Z,56.10
2017-06-21T05:13:04.687Z,55.70
2017-06-21T05:15:34.729Z,55.70
2017-06-21T05:18:04.734Z,54.80
2017-06-21T05:20:34.804Z,55.30
2017-06-21T05:23:04.865Z,57.60
2017-06-21T05:25:35.115Z,57.50
2017-06-21T05:28:05.438Z,59.60
2017-06-21T05:30:35.556Z,60.50
2017-06-21T05:33:05.696Z,60.40
2017-06-21T05:35:36.053Z,60.50
2017-06-21T05:38:06.105Z,61.50
2017-06-21T05:40:36.353Z,62.20
2017-06-21T05:43:06.647Z,63.70
2017-06-21T05:45:36.830Z,64.50
2017-06-21T05:48:07.214Z,63.60
2017-06-21T05:50:37.240Z,64.50
2017-06-21T05:53:07.310Z,64.20
2017-06-21T05:55:37.623Z,63.40
2017-06-21T05:58:07.739Z,62.60
2017-06-21T06:00:37.978Z,58.70
2017-06-21T06:03:08.122Z,55.80
2017-06-21T06:05:38.223Z,52.90
2017-06-21T06:08:08.562Z,49.60
2017-06-21T06:10:38.673Z,48.50
2017-06-21T06:13:08.912Z,47.70
2017-06-21T06:15:38.923Z,46.30
2017-06-21T06:18:09.262Z,45.70
2017-06-21T06:20:39.691Z,45.90
2017-06-21T06:23:09.753Z,47.50
2017-06-21T06:25:40.006Z,46.70
2017-06-21T06:28:10.476Z,46.70
2017-06-21T06:30:40.525Z,44.50
2017-06-21T06:33:10.636Z,45.90
2017-06-21T06:35:40.780Z,43.90
2017-06-21T06:38:11.090Z,44.50
2017-06-21T06:40:41.876Z,45.50
2017-06-21T06:43:12.388Z,46.10
2017-06-21T06:45:42.448Z,43.60
2017-06-21T06:48:12.824Z,43.90
2017-06-21T06:50:43.221Z,46.30
2017-06-21T06:53:13.396Z,47.50
2017-06-21T06:55:43.713Z,46.60
2017-06-21T06:58:14.366Z,43.00
2017-06-21T07:00:44.784Z,44.00
2017-06-21T07:03:15.184Z,42.30
2017-06-21T07:05:45.260Z,41.30
2017-06-21T07:08:15.281Z,40.20
2017-06-21T07:10:45.278Z,40.70
2017-06-21T07:13:15.670Z,38.30
2017-06-21T07:15:45.987Z,37.90
2017-06-21T07:18:15.993Z,37.50
2017-06-21T07:20:46.153Z,36.00
2017-06-21T07:23:16.270Z,37.60
2017-06-21T07:25:46.638Z,37.50
2017-06-21T07:28:17.039Z,39.70
2017-06-21T07:30:47.076Z,38.80
2017-06-21T07:33:17.541Z,37.20
2017-06-21T07:35:47.818Z,37.60
2017-06-21T07:38:17.866Z,36.10
2017-06-21T07:40:47.993Z,36.50
2017-06-21T07:43:18.548Z,33.80
2017-06-21T07:45:49.098Z,34.10
2017-06-21T07:48:19.123Z,32.90
2017-06-21T07:50:49.267Z,34.10
2017-06-21T07:53:19.658Z,34.70
2017-06-21T07:55:49.697Z,34.70
2017-06-21T07:58:19.715Z,33.00
2017-06-21T08:00:50.265Z,30.80
2017-06-21T08:03:20.764Z,31.60
2017-06-21T08:05:51.383Z,31.60
2017-06-21T08:08:21.593Z,31.10
2017-06-21T08:10:51.648Z,33.00
2017-06-21T08:13:22.065Z,30.80
2017-06-21T08:15:52.148Z,35.60
2017-06-21T08:18:22.924Z,37.80
2017-06-21T08:20:52.978Z,36.30
2017-06-21T08:23:23.005Z,32.80
2017-06-21T08:25:53.533Z,34.30
2017-06-21T08:28:23.536Z,32.90
2017-06-21T08:30:53.953Z,35.40
2017-06-21T08:33:25.040Z,30.00
2017-06-21T08:35:55.064Z,30.00
2017-06-21T08:38:25.379Z,30.40
2017-06-21T08:40:55.352Z,30.00
2017-06-21T08:43:26.342Z,33.20
2017-06-21T08:45:56.954Z,30.30
2017-06-21T08:48:27.033Z,32.80
2017-06-21T08:50:57.073Z,32.90
2017-06-21T08:53:27.158Z,36.10
2017-06-21T08:55:57.381Z,41.10
2017-06-21T08:58:27.681Z,45.10
2017-06-21T09:00:57.774Z,48.70
2017-06-21T09:03:27.794Z,48.90
2017-06-21T09:05:58.129Z,48.20
2017-06-21T09:08:28.213Z,49.30
2017-06-21T09:10:58.236Z,49.60
2017-06-21T09:13:28.635Z,48.70
2017-06-21T09:15:58.689Z,49.60
2017-06-21T09:18:29.171Z,49.20
2017-06-21T09:20:59.249Z,50.20
2017-06-21T09:23:29.253Z,49.70
2017-06-21T09:25:59.631Z,51.50
2017-06-21T09:28:29.649Z,51.60
2017-06-21T09:30:59.694Z,51.50
2017-06-21T09:33:29.725Z,51.00
2017-06-21T09:35:59.755Z,50.50
2017-06-21T09:38:30.110Z,50.00
2017-06-21T09:41:00.409Z,49.00
2017-06-21T09:43:30.864Z,51.40
2017-06-21T09:46:01.473Z,51.60
2017-06-21T09:48:31.754Z,52.80
2017-06-21T09:51:02.117Z,52.20
2017-06-21T09:53:32.166Z,51.90
2017-06-21T09:56:02.765Z,50.90
2017-06-21T09:58:33.140Z,51.30
2017-06-21T10:01:03.676Z,49.90
2017-06-21T10:03:33.822Z,51.10
2017-06-21T10:06:04.003Z,49.80
2017-06-21T10:08:34.045Z,51.30
2017-06-21T10:11:04.397Z,52.90
2017-06-21T10:13:34.456Z,52.20
2017-06-21T10:16:04.600Z,51.10
2017-06-21T10:18:35.284Z,51.40
2017-06-21T10:21:05.486Z,50.80
2017-06-21T10:23:35.582Z,52.40
2017-06-21T10:26:07.018Z,51.80
2017-06-21T10:28:37.203Z,50.20
2017-06-21T10:31:07.254Z,52.00
2017-06-21T10:33:37.569Z,52.30
2017-06-21T10:36:07.802Z,51.10
2017-06-21T10:38:38.145Z,51.30
2017-06-21T10:41:08.394Z,51.90
2017-06-21T10:43:38.456Z,50.80
2017-06-21T10:46:08.741Z,51.20
2017-06-21T10:48:38.788Z,50.80
2017-06-21T10:51:09.106Z,51.40
2017-06-21T10:53:39.137Z,49.60
2017-06-21T10:56:09.213Z,50.40
2017-06-21T10:58:39.808Z,49.80
2017-06-21T11:01:10.599Z,50.10
2017-06-21T11:03:40.719Z,49.50
2017-06-21T11:06:11.332Z,49.00
2017-06-21T11:08:41.607Z,48.90
2017-06-21T11:11:12.022Z,49.50
2017-06-21T11:13:42.759Z,49.40
2017-06-21T11:16:13.577Z,48.90
2017-06-21T11:18:43.998Z,50.00
2017-06-21T11:21:14.125Z,49.80
2017-06-21T11:23:44.494Z,50.80
2017-06-21T11:26:14.685Z,51.00
2017-06-21T11:28:44.791Z,48.70
2017-06-21T11:31:15.174Z,49.30
2017-06-21T11:33:47.978Z,49.10
2017-06-21T11:36:18.188Z,50.50
2017-06-21T11:38:48.572Z,48.00
2017-06-21T11:41:19.351Z,48.50
2017-06-21T11:43:50.047Z,49.70
2017-06-21T11:46:20.541Z,48.70
2017-06-21T11:48:51.311Z,50.20
2017-06-21T11:51:21.798Z,49.90
2017-06-21T11:53:51.869Z,50.10
2017-06-21T11:56:22.030Z,52.60
2017-06-21T11:58:52.175Z,50.60
2017-06-21T12:01:22.358Z,50.40
2017-06-21T12:03:52.715Z,50.20
2017-06-21T12:06:22.742Z,51.40
2017-06-21T12:08:52.954Z,50.30
2017-06-21T12:11:24.764Z,48.50
2017-06-21T12:13:55.985Z,52.80
2017-06-21T12:16:26.659Z,52.80
2017-06-21T12:18:56.753Z,50.10
2017-06-21T12:21:26.849Z,49.80
2017-06-21T12:23:57.258Z,50.50
2017-06-21T12:26:28.793Z,49.70
2017-06-21T12:28:59.506Z,50.00
2017-06-21T12:31:29.946Z,49.80
2017-06-21T12:34:00.655Z,50.10
2017-06-21T12:36:30.969Z,49.20
2017-06-21T12:39:02.055Z,49.20
2017-06-21T12:41:32.347Z,48.20
2017-06-21T12:44:02.736Z,48.90
2017-06-21T12:46:32.834Z,49.60
2017-06-21T12:49:02.995Z,50.40
2017-06-21T12:51:33.608Z,50.80
2017-06-21T12:54:03.866Z,51.30
2017-06-21T12:56:33.935Z,50.50
2017-06-21T12:59:04.373Z,50.60
2017-06-21T13:01:34.947Z,51.40
2017-06-21T13:04:05.007Z,52.60
2017-06-21T13:06:35.074Z,54.10
2017-06-21T13:09:05.772Z,53.80
2017-06-21T13:11:35.967Z,56.40
2017-06-21T13:14:06.166Z,53.00
2017-06-21T13:16:36.257Z,53.20
2017-06-21T13:19:06.644Z,52.60
2017-06-21T13:21:36.785Z,53.50
2017-06-21T13:24:06.869Z,58.70
2017-06-21T13:26:37.001Z,59.80
2017-06-21T13:29:07.184Z,61.00
2017-06-21T13:31:37.572Z,61.20
2017-06-21T13:34:07.713Z,61.00
2017-06-21T13:36:37.781Z,63.70
2017-06-21T13:39:07.876Z,64.20
2017-06-21T13:41:37.921Z,67.10
2017-06-21T13:44:08.821Z,67.50
2017-06-21T13:46:39.708Z,65.30
2017-06-21T13:49:09.902Z,66.20
2017-06-21T13:51:40.083Z,64.80
2017-06-21T13:54:10.214Z,65.10
2017-06-21T13:56:40.633Z,67.10
2017-06-21T13:59:11.486Z,67.60
2017-06-21T14:01:41.839Z,69.50
2017-06-21T14:04:12.056Z,70.90
2017-06-21T14:06:42.377Z,68.20
2017-06-21T14:09:12.871Z,67.20
2017-06-21T14:11:43.074Z,66.50
2017-06-21T14:14:13.241Z,68.10
2017-06-21T14:16:44.100Z,67.70
2017-06-21T14:19:14.332Z,69.00
2017-06-21T14:21:44.609Z,69.10
2017-06-21T14:24:15.103Z,69.90
2017-06-21T14:26:45.320Z,70.10
2017-06-21T14:29:15.481Z,68.90
2017-06-21T14:31:45.976Z,70.30
2017-06-21T14:34:16.153Z,71.20
2017-06-21T14:36:46.449Z,69.70
2017-06-21T14:39:16.587Z,66.80
2017-06-21T14:41:47.036Z,67.90
2017-06-21T14:44:17.647Z,65.90
2017-06-21T14:46:47.812Z,64.90
2017-06-21T14:49:18.004Z,62.80
2017-06-21T14:51:48.482Z,64.20
2017-06-21T14:54:18.652Z,64.60
2017-06-21T14:56:49.147Z,64.90
2017-06-21T14:59:19.303Z,64.80
2017-06-21T15:01:49.472Z,64.70
2017-06-21T15:04:19.959Z,66.90
2017-06-21T15:06:50.140Z,65.00
2017-06-21T15:09:20.316Z,66.50
2017-06-21T15:11:50.487Z,62.70
2017-06-21T15:14:20.740Z,61.70
2017-06-21T15:16:51.168Z,61.20
2017-06-21T15:19:21.755Z,63.40
2017-06-21T15:21:51.887Z,63.20
2017-06-21T15:24:22.293Z,64.50
2017-06-21T15:26:53.056Z,63.60
2017-06-21T15:29:23.289Z,62.80
2017-06-21T15:31:53.549Z,64.10
2017-06-21T15:34:24.850Z,65.80
2017-06-21T15:36:56.437Z,65.50
2017-06-21T15:39:26.654Z,66.60
2017-06-21T15:41:56.832Z,65.40
2017-06-21T15:44:27.499Z,66.10
2017-06-21T15:46:58.011Z,66.40
2017-06-21T15:49:28.797Z,67.00
2017-06-21T15:51:58.985Z,66.90
2017-06-21T15:54:29.607Z,64.70
2017-06-21T15:57:00.521Z,63.20
2017-06-21T15:59:30.917Z,63.30
2017-06-21T16:02:01.129Z,63.50
2017-06-21T16:04:31.348Z,63.50
2017-06-21T16:07:01.875Z,61.80
2017-06-21T16:09:32.392Z,62.70
2017-06-21T16:12:02.827Z,62.60
2017-06-21T16:14:33.116Z,61.10
2017-06-21T16:17:03.807Z,60.40
2017-06-21T16:19:34.049Z,59.70
2017-06-21T16:22:04.775Z,60.30
2017-06-21T16:24:35.060Z,61.40
2017-06-21T16:27:05.383Z,59.80
2017-06-21T16:29:35.828Z,60.60
2017-06-21T16:32:05.972Z,59.70
2017-06-21T16:34:36.140Z,58.70
2017-06-21T16:37:07.700Z,58.70
2017-06-21T16:39:37.920Z,58.80
2017-06-21T16:42:08.516Z,58.70
2017-06-21T16:44:38.661Z,59.00
2017-06-21T16:47:08.850Z,59.10
2017-06-21T16:49:40.287Z,58.90
2017-06-21T16:52:10.552Z,59.10
2017-06-21T16:54:40.757Z,58.40
2017-06-21T16:57:11.202Z,58.50
2017-06-21T16:59:41.496Z,58.20
2017-06-21T17:02:11.720Z,58.20
2017-06-21T17:04:41.878Z,58.40
2017-06-21T17:07:12.112Z,58.40
2017-06-21T17:09:42.605Z,59.00
2017-06-21T17:12:13.362Z,59.00
2017-06-21T17:14:43.709Z,59.80
2017-06-21T17:17:13.917Z,59.40
2017-06-21T17:19:44.403Z,59.80
2017-06-21T17:22:14.903Z,60.10
2017-06-21T17:24:45.201Z,62.90
2017-06-21T17:27:18.580Z,62.90
2017-06-21T17:29:49.134Z,63.20
2017-06-21T17:32:22.091Z,60.90
2017-06-21T17:34:53.141Z,61.30
2017-06-21T17:37:25.405Z,62.10
2017-06-21T17:39:55.899Z,61.90
2017-06-21T17:42:26.497Z,61.50
2017-06-21T17:44:57.278Z,60.70
2017-06-21T17:47:27.770Z,61.60
2017-06-21T17:50:00.136Z,60.90
2017-06-21T17:52:33.577Z,62.70
2017-06-21T17:55:05.079Z,62.10
2017-06-21T17:57:35.733Z,62.20
2017-06-21T18:00:06.306Z,62.40
2017-06-21T18:02:37.151Z,63.50
2017-06-21T18:05:09.442Z,63.20
2017-06-21T18:07:39.880Z,63.60
2017-06-21T18:10:11.392Z,64.50
2017-06-21T18:12:41.874Z,63.70
2017-06-21T18:15:12.625Z,64.90
2017-06-21T18:17:42.824Z,66.10
2017-06-21T18:20:13.318Z,66.80
2017-06-21T18:22:43.804Z,66.90
2017-06-21T18:25:14.105Z,65.70
2017-06-21T18:27:44.296Z,65.40
2017-06-21T18:30:15.085Z,65.80
2017-06-21T18:32:46.176Z,65.80
2017-06-21T18:35:17.081Z,66.30
2017-06-21T18:37:47.269Z,66.30
2017-06-21T18:40:18.015Z,67.00
2017-06-21T18:42:48.180Z,67.70
2017-06-21T18:45:18.369Z,68.20
2017-06-21T18:47:48.932Z,69.00
2017-06-21T18:50:20.885Z,69.00
2017-06-21T18:52:51.440Z,70.10
2017-06-21T18:55:22.811Z,70.40
2017-06-21T18:57:53.076Z,70.00
2017-06-21T19:00:23.300Z,70.20
2017-06-21T19:02:54.173Z,70.80
2017-06-21T19:05:24.448Z,70.40
2017-06-21T19:07:55.604Z,71.20
2017-06-21T19:10:26.369Z,71.10
2017-06-21T19:12:57.196Z,71.80
2017-06-21T19:15:27.441Z,72.40
2017-06-21T19:17:57.890Z,72.20
2017-06-21T19:20:28.110Z,72.50
2017-06-21T19:23:01.199Z,73.20
2017-06-21T19:25:31.963Z,73.60
2017-06-21T19:28:02.373Z,73.50
2017-06-21T19:30:32.818Z,73.80
2017-06-21T19:33:04.261Z,72.90
2017-06-21T19:35:35.724Z,73.90
2017-06-21T19:38:06.013Z,74.70
2017-06-21T19:40:37.017Z,72.30
2017-06-21T19:43:08.648Z,73.30
2017-06-21T19:45:39.414Z,72.30
2017-06-21T19:48:10.137Z,73.30
2017-06-21T19:50:40.774Z,73.20
2017-06-21T19:53:10.969Z,73.10
2017-06-21T19:55:41.146Z,73.60
2017-06-21T19:58:11.418Z,72.50
2017-06-21T20:00:41.988Z,72.70
2017-06-21T20:03:12.551Z,72.00
2017-06-21T20:05:42.972Z,71.70
2017-06-21T20:08:13.944Z,71.50
2017-06-21T20:10:44.219Z,71.40
2017-06-21T20:13:14.634Z,71.50
2017-06-21T20:15:45.455Z,72.10
2017-06-21T20:18:15.628Z,71.20
2017-06-21T20:20:46.074Z,71.10
2017-06-21T20:23:16.861Z,72.10
2017-06-21T20:25:47.091Z,72.40
2017-06-21T20:28:17.551Z,71.30
2017-06-21T20:30:47.763Z,71.50
2017-06-21T20:33:18.598Z,72.20
2017-06-21T20:35:49.282Z,72.20
2017-06-21T20:38:19.451Z,71.60
2017-06-21T20:40:50.082Z,71.50
2017-06-21T20:43:20.283Z,71.40
2017-06-21T20:45:50.393Z,71.80
2017-06-21T20:48:20.861Z,71.80
2017-06-21T20:50:50.972Z,71.80
2017-06-21T20:53:21.113Z,71.70
2017-06-21T20:55:51.641Z,71.70
2017-06-21T20:58:21.777Z,71.80
2017-06-21T21:00:51.934Z,71.80
2017-06-21T21:03:22.389Z,72.60
2017-06-21T21:05:52.919Z,72.60
2017-06-21T21:08:23.302Z,72.80
2017-06-21T21:10:53.800Z,73.50
2017-06-21T21:13:24.324Z,72.80
2017-06-21T21:15:54.900Z,72.10
2017-06-21T21:18:25.252Z,73.20
2017-06-21T21:20:55.778Z,72.00
2017-06-21T21:23:26.632Z,71.30
2017-06-21T21:25:57.284Z,71.90
2017-06-21T21:28:27.772Z,72.00
2017-06-21T21:30:57.920Z,73.40
2017-06-21T21:33:28.099Z,72.50
2017-06-21T21:35:58.664Z,71.10
2017-06-21T21:38:29.144Z,71.00
2017-06-21T21:40:59.613Z,70.70
2017-06-21T21:43:30.140Z,70.70
2017-06-21T21:46:01.012Z,70.90
2017-06-21T21:50:28.108Z,70.80
2017-06-21T21:52:58.465Z,70.50
2017-06-21T21:55:28.884Z,70.70
2017-06-21T21:57:59.749Z,70.80
2017-06-21T22:00:30.124Z,70.60
2017-06-21T22:03:00.508Z,70.60
2017-06-21T22:05:31.456Z,71.50
2017-06-21T22:08:01.922Z,70.60
2017-06-21T22:10:32.343Z,70.70
2017-06-21T22:13:02.486Z,71.10
2017-06-21T22:15:32.862Z,71.00
2017-06-21T22:18:03.013Z,71.60
2017-06-21T22:20:33.184Z,72.10
2017-06-21T22:23:03.372Z,71.80
2017-06-21T22:25:34.044Z,71.10
2017-06-21T22:28:05.076Z,72.00
2017-06-21T22:30:35.770Z,72.20
2017-06-21T22:33:07.165Z,73.60
2017-06-21T22:35:38.683Z,72.20
2017-06-21T22:38:09.245Z,71.70
2017-06-21T22:40:39.614Z,71.60
2017-06-21T22:43:10.345Z,72.00
2017-06-21T22:45:40.796Z,71.30
2017-06-21T22:48:11.256Z,71.90
2017-06-21T22:50:41.772Z,70.50
2017-06-21T22:53:12.395Z,69.90
2017-06-21T22:55:42.887Z,68.80
2017-06-21T22:58:13.328Z,69.30
2017-06-21T23:00:43.664Z,69.40
2017-06-21T23:03:14.224Z,70.20
2017-06-21T23:05:44.472Z,69.60
2017-06-21T23:08:15.683Z,69.30
2017-06-21T23:10:45.960Z,69.30
2017-06-21T23:13:16.404Z,70.00
2017-06-21T23:15:46.901Z,69.60
2017-06-21T23:18:17.899Z,70.60
2017-06-21T23:20:48.332Z,69.20
2017-06-21T23:23:18.809Z,68.70
2017-06-21T23:25:49.548Z,68.40
2017-06-21T23:28:19.888Z,68.10
2017-06-21T23:30:50.384Z,68.20
2017-06-21T23:33:20.553Z,68.60
2017-06-21T23:35:50.695Z,68.70
2017-06-21T23:38:20.974Z,69.40
2017-06-21T23:40:51.328Z,68.60
2017-06-21T23:43:21.483Z,68.30
2017-06-21T23:45:51.672Z,68.70
2017-06-21T23:48:22.082Z,68.30
2017-06-21T23:50:52.840Z,67.90
2017-06-21T23:53:23.307Z,67.90
2017-06-21T23:55:54.657Z,68.30
2017-06-21T23:58:25.848Z,68.20
